sensor_id;sensor_type;location;lat;lon;timestamp;temperature;humidity
736;DHT22;352;48.626;9.238;2023-07-13T00:00:24;22.70;95.80
736;DHT22;352;48.626;9.238;2023-07-13T00:02:52;22.70;96.00
736;DHT22;352;48.626;9.238;2023-07-13T00:05:19;22.70;95.60
736;DHT22;352;48.626;9.238;2023-07-13T00:07:47;22.70;95.50
736;DHT22;352;48.626;9.238;2023-07-13T00:10:14;22.70;95.50
736;DHT22;352;48.626;9.238;2023-07-13T00:12:41;22.60;95.50
736;DHT22;352;48.626;9.238;2023-07-13T00:15:24;22.60;95.80
736;DHT22;352;48.626;9.238;2023-07-13T00:17:56;22.60;95.70
736;DHT22;352;48.626;9.238;2023-07-13T00:20:24;22.50;95.60
736;DHT22;352;48.626;9.238;2023-07-13T00:22:51;22.50;95.80
736;DHT22;352;48.626;9.238;2023-07-13T00:25:19;22.50;96.00
736;DHT22;352;48.626;9.238;2023-07-13T00:27:47;22.50;96.20
736;DHT22;352;48.626;9.238;2023-07-13T00:30:15;22.40;96.10
736;DHT22;352;48.626;9.238;2023-07-13T00:32:42;22.30;95.90
736;DHT22;352;48.626;9.238;2023-07-13T00:35:12;22.30;95.60
736;DHT22;352;48.626;9.238;2023-07-13T00:37:39;22.20;95.70
736;DHT22;352;48.626;9.238;2023-07-13T00:40:07;22.20;95.60
736;DHT22;352;48.626;9.238;2023-07-13T00:42:34;22.10;95.70
736;DHT22;352;48.626;9.238;2023-07-13T00:45:03;22.10;95.60
736;DHT22;352;48.626;9.238;2023-07-13T00:47:31;22.10;95.50
736;DHT22;352;48.626;9.238;2023-07-13T00:49:58;22.00;95.50
736;DHT22;352;48.626;9.238;2023-07-13T00:52:26;21.90;95.20
736;DHT22;352;48.626;9.238;2023-07-13T00:54:54;21.80;95.20
736;DHT22;352;48.626;9.238;2023-07-13T00:57:22;21.80;94.80
736;DHT22;352;48.626;9.238;2023-07-13T00:59:52;21.80;95.10
736;DHT22;352;48.626;9.238;2023-07-13T01:02:22;21.70;94.60
736;DHT22;352;48.626;9.238;2023-07-13T01:04:50;21.60;94.80
736;DHT22;352;48.626;9.238;2023-07-13T01:07:18;21.60;94.10
736;DHT22;352;48.626;9.238;2023-07-13T01:09:47;21.60;94.60
736;DHT22;352;48.626;9.238;2023-07-13T01:12:13;21.50;95.50
736;DHT22;352;48.626;9.238;2023-07-13T01:14:40;21.50;97.60
736;DHT22;352;48.626;9.238;2023-07-13T01:17:09;21.50;98.50
736;DHT22;352;48.626;9.238;2023-07-13T01:19:39;21.50;99.20
736;DHT22;352;48.626;9.238;2023-07-13T01:22:09;21.50;98.60
736;DHT22;352;48.626;9.238;2023-07-13T01:24:37;21.50;98.60
736;DHT22;352;48.626;9.238;2023-07-13T01:27:06;21.40;98.50
736;DHT22;352;48.626;9.238;2023-07-13T01:29:36;21.40;98.60
736;DHT22;352;48.626;9.238;2023-07-13T01:32:07;21.30;98.40
736;DHT22;352;48.626;9.238;2023-07-13T01:34:35;21.20;98.50
736;DHT22;352;48.626;9.238;2023-07-13T01:37:02;21.20;98.50
736;DHT22;352;48.626;9.238;2023-07-13T01:39:31;21.20;98.40
736;DHT22;352;48.626;9.238;2023-07-13T01:41:58;21.10;97.80
736;DHT22;352;48.626;9.238;2023-07-13T01:44:25;21.00;97.50
736;DHT22;352;48.626;9.238;2023-07-13T01:46:52;21.10;97.00
736;DHT22;352;48.626;9.238;2023-07-13T01:49:19;21.00;96.90
736;DHT22;352;48.626;9.238;2023-07-13T01:51:45;20.90;97.10
736;DHT22;352;48.626;9.238;2023-07-13T01:54:12;20.90;97.30
736;DHT22;352;48.626;9.238;2023-07-13T01:56:40;20.80;97.60
736;DHT22;352;48.626;9.238;2023-07-13T01:59:07;20.90;97.80
736;DHT22;352;48.626;9.238;2023-07-13T02:01:34;20.80;98.00
736;DHT22;352;48.626;9.238;2023-07-13T02:04:01;20.80;98.20
736;DHT22;352;48.626;9.238;2023-07-13T02:06:28;20.80;98.00
736;DHT22;352;48.626;9.238;2023-07-13T02:08:55;20.80;98.10
736;DHT22;352;48.626;9.238;2023-07-13T02:11:22;20.80;98.20
736;DHT22;352;48.626;9.238;2023-07-13T02:13:50;20.80;98.20
736;DHT22;352;48.626;9.238;2023-07-13T02:16:20;20.80;98.60
736;DHT22;352;48.626;9.238;2023-07-13T02:19:22;20.80;98.80
736;DHT22;352;48.626;9.238;2023-07-13T02:22:17;20.70;98.60
736;DHT22;352;48.626;9.238;2023-07-13T02:25:45;20.60;99.00
736;DHT22;352;48.626;9.238;2023-07-13T02:31:28;20.50;99.30
736;DHT22;352;48.626;9.238;2023-07-13T02:34:22;20.40;99.40
736;DHT22;352;48.626;9.238;2023-07-13T02:37:14;20.40;99.50
736;DHT22;352;48.626;9.238;2023-07-13T02:40:36;20.40;99.90
736;DHT22;352;48.626;9.238;2023-07-13T02:47:06;20.40;99.80
736;DHT22;352;48.626;9.238;2023-07-13T02:49:54;20.40;99.90
736;DHT22;352;48.626;9.238;2023-07-13T02:52:51;20.40;99.90
736;DHT22;352;48.626;9.238;2023-07-13T02:55:58;20.40;99.90
736;DHT22;352;48.626;9.238;2023-07-13T02:58:49;20.40;99.80
736;DHT22;352;48.626;9.238;2023-07-13T03:01:31;20.40;99.80
736;DHT22;352;48.626;9.238;2023-07-13T03:04:23;20.40;99.90
736;DHT22;352;48.626;9.238;2023-07-13T03:07:15;20.40;99.90
736;DHT22;352;48.626;9.238;2023-07-13T03:10:00;20.30;99.90
736;DHT22;352;48.626;9.238;2023-07-13T03:13:10;20.30;99.90
736;DHT22;352;48.626;9.238;2023-07-13T03:16:01;20.30;99.90
736;DHT22;352;48.626;9.238;2023-07-13T03:19:00;20.20;99.90
736;DHT22;352;48.626;9.238;2023-07-13T03:22:12;20.20;99.90
736;DHT22;352;48.626;9.238;2023-07-13T03:25:40;20.20;99.90
736;DHT22;352;48.626;9.238;2023-07-13T03:31:09;20.10;99.90
736;DHT22;352;48.626;9.238;2023-07-13T03:34:47;20.00;99.90
736;DHT22;352;48.626;9.238;2023-07-13T03:37:43;20.00;99.90
736;DHT22;352;48.626;9.238;2023-07-13T03:40:35;20.00;99.90
736;DHT22;352;48.626;9.238;2023-07-13T03:43:41;20.10;99.90
736;DHT22;352;48.626;9.238;2023-07-13T03:46:34;20.10;99.90
736;DHT22;352;48.626;9.238;2023-07-13T03:49:27;20.10;99.90
736;DHT22;352;48.626;9.238;2023-07-13T03:52:37;20.10;99.90
736;DHT22;352;48.626;9.238;2023-07-13T03:55:31;20.10;99.90
736;DHT22;352;48.626;9.238;2023-07-13T03:58:36;20.10;99.90
736;DHT22;352;48.626;9.238;2023-07-13T04:04:15;20.00;99.90
736;DHT22;352;48.626;9.238;2023-07-13T04:07:06;20.00;99.90
736;DHT22;352;48.626;9.238;2023-07-13T04:10:00;20.00;99.90
736;DHT22;352;48.626;9.238;2023-07-13T04:12:40;20.00;99.90
736;DHT22;352;48.626;9.238;2023-07-13T04:15:33;20.00;99.90
736;DHT22;352;48.626;9.238;2023-07-13T04:18:34;20.10;99.90
736;DHT22;352;48.626;9.238;2023-07-13T04:21:29;20.10;99.90
736;DHT22;352;48.626;9.238;2023-07-13T04:24:28;20.10;99.90
736;DHT22;352;48.626;9.238;2023-07-13T04:30:26;20.00;99.90
736;DHT22;352;48.626;9.238;2023-07-13T04:32:53;20.00;99.90
736;DHT22;352;48.626;9.238;2023-07-13T04:35:20;20.00;99.90
736;DHT22;352;48.626;9.238;2023-07-13T04:37:48;20.00;99.90
736;DHT22;352;48.626;9.238;2023-07-13T04:40:15;20.00;99.90
736;DHT22;352;48.626;9.238;2023-07-13T04:42:42;20.00;99.90
736;DHT22;352;48.626;9.238;2023-07-13T04:45:09;20.00;99.90
736;DHT22;352;48.626;9.238;2023-07-13T04:47:41;20.10;99.90
736;DHT22;352;48.626;9.238;2023-07-13T04:50:08;20.10;99.90
736;DHT22;352;48.626;9.238;2023-07-13T04:52:36;20.10;99.90
736;DHT22;352;48.626;9.238;2023-07-13T04:55:03;20.10;99.90
736;DHT22;352;48.626;9.238;2023-07-13T04:57:30;20.10;99.90
736;DHT22;352;48.626;9.238;2023-07-13T04:59:58;20.20;99.90
736;DHT22;352;48.626;9.238;2023-07-13T05:02:26;20.20;99.90
736;DHT22;352;48.626;9.238;2023-07-13T05:04:55;20.20;99.90
736;DHT22;352;48.626;9.238;2023-07-13T05:07:31;20.20;99.90
736;DHT22;352;48.626;9.238;2023-07-13T05:09:58;20.20;99.90
736;DHT22;352;48.626;9.238;2023-07-13T05:12:25;20.20;99.90
736;DHT22;352;48.626;9.238;2023-07-13T05:14:52;20.20;99.90
736;DHT22;352;48.626;9.238;2023-07-13T05:17:19;20.20;99.90
736;DHT22;352;48.626;9.238;2023-07-13T05:19:46;20.30;99.90
736;DHT22;352;48.626;9.238;2023-07-13T05:22:14;20.30;99.90
736;DHT22;352;48.626;9.238;2023-07-13T05:24:40;20.30;99.90
736;DHT22;352;48.626;9.238;2023-07-13T05:27:07;20.40;99.90
736;DHT22;352;48.626;9.238;2023-07-13T05:29:34;20.40;99.90
736;DHT22;352;48.626;9.238;2023-07-13T05:32:01;20.40;99.90
736;DHT22;352;48.626;9.238;2023-07-13T05:34:27;20.50;99.90
736;DHT22;352;48.626;9.238;2023-07-13T05:36:54;20.50;99.90
736;DHT22;352;48.626;9.238;2023-07-13T05:39:23;20.60;99.90
736;DHT22;352;48.626;9.238;2023-07-13T05:41:50;20.60;99.90
736;DHT22;352;48.626;9.238;2023-07-13T05:44:16;20.50;99.90
736;DHT22;352;48.626;9.238;2023-07-13T05:46:44;20.60;99.90
736;DHT22;352;48.626;9.238;2023-07-13T05:49:11;20.60;99.90
736;DHT22;352;48.626;9.238;2023-07-13T05:51:37;20.70;99.90
736;DHT22;352;48.626;9.238;2023-07-13T05:54:04;20.80;99.90
736;DHT22;352;48.626;9.238;2023-07-13T05:56:32;20.80;99.90
736;DHT22;352;48.626;9.238;2023-07-13T05:58:59;20.80;99.90
736;DHT22;352;48.626;9.238;2023-07-13T06:01:26;20.80;99.90
736;DHT22;352;48.626;9.238;2023-07-13T06:03:53;20.80;99.90
736;DHT22;352;48.626;9.238;2023-07-13T06:06:19;20.80;99.90
736;DHT22;352;48.626;9.238;2023-07-13T06:08:46;20.90;99.90
736;DHT22;352;48.626;9.238;2023-07-13T06:11:15;21.00;99.90
736;DHT22;352;48.626;9.238;2023-07-13T06:13:44;21.10;99.90
736;DHT22;352;48.626;9.238;2023-07-13T06:16:12;21.30;99.90
736;DHT22;352;48.626;9.238;2023-07-13T06:18:40;21.50;99.90
736;DHT22;352;48.626;9.238;2023-07-13T06:21:08;21.80;99.90
736;DHT22;352;48.626;9.238;2023-07-13T06:23:35;22.20;99.90
736;DHT22;352;48.626;9.238;2023-07-13T06:26:02;22.80;98.80
736;DHT22;352;48.626;9.238;2023-07-13T06:28:29;23.40;98.40
736;DHT22;352;48.626;9.238;2023-07-13T06:30:58;23.80;97.10
736;DHT22;352;48.626;9.238;2023-07-13T06:33:25;24.20;96.10
736;DHT22;352;48.626;9.238;2023-07-13T06:35:52;24.50;96.70
736;DHT22;352;48.626;9.238;2023-07-13T06:38:20;24.70;95.20
736;DHT22;352;48.626;9.238;2023-07-13T06:40:47;24.90;94.80
736;DHT22;352;48.626;9.238;2023-07-13T06:43:13;25.20;93.40
736;DHT22;352;48.626;9.238;2023-07-13T06:45:42;25.50;92.50
736;DHT22;352;48.626;9.238;2023-07-13T06:48:12;25.80;90.90
736;DHT22;352;48.626;9.238;2023-07-13T06:50:39;26.20;90.60
736;DHT22;352;48.626;9.238;2023-07-13T06:53:06;26.50;89.80
736;DHT22;352;48.626;9.238;2023-07-13T06:55:32;26.90;83.60
736;DHT22;352;48.626;9.238;2023-07-13T06:57:59;27.20;83.00
736;DHT22;352;48.626;9.238;2023-07-13T07:00:26;27.50;82.70
736;DHT22;352;48.626;9.238;2023-07-13T07:02:53;27.70;77.80
736;DHT22;352;48.626;9.238;2023-07-13T07:05:21;27.90;79.90
736;DHT22;352;48.626;9.238;2023-07-13T07:07:49;28.10;77.20
736;DHT22;352;48.626;9.238;2023-07-13T07:10:16;28.30;74.30
736;DHT22;352;48.626;9.238;2023-07-13T07:12:42;28.60;71.90
736;DHT22;352;48.626;9.238;2023-07-13T07:15:10;28.70;67.00
736;DHT22;352;48.626;9.238;2023-07-13T07:17:37;28.80;64.00
736;DHT22;352;48.626;9.238;2023-07-13T07:20:04;28.90;65.30
736;DHT22;352;48.626;9.238;2023-07-13T07:22:33;28.80;68.10
736;DHT22;352;48.626;9.238;2023-07-13T07:24:59;28.90;67.20
736;DHT22;352;48.626;9.238;2023-07-13T07:30:41;29.20;64.40
736;DHT22;352;48.626;9.238;2023-07-13T07:33:08;29.50;62.20
736;DHT22;352;48.626;9.238;2023-07-13T09:17:19;34.70;46.60
736;DHT22;352;48.626;9.238;2023-07-13T09:19:54;34.90;44.50
736;DHT22;352;48.626;9.238;2023-07-13T09:22:24;35.20;45.40
736;DHT22;352;48.626;9.238;2023-07-13T09:24:58;35.40;43.80
736;DHT22;352;48.626;9.238;2023-07-13T09:27:30;35.60;43.80
736;DHT22;352;48.626;9.238;2023-07-13T09:30:22;35.70;40.80
736;DHT22;352;48.626;9.238;2023-07-13T09:32:53;35.60;39.90
736;DHT22;352;48.626;9.238;2023-07-13T09:35:24;35.70;41.90
736;DHT22;352;48.626;9.238;2023-07-13T09:37:56;35.80;42.70
736;DHT22;352;48.626;9.238;2023-07-13T09:40:30;35.50;41.80
736;DHT22;352;48.626;9.238;2023-07-13T09:43:00;35.00;40.90
736;DHT22;352;48.626;9.238;2023-07-13T09:45:33;34.50;42.30
736;DHT22;352;48.626;9.238;2023-07-13T09:48:06;34.20;43.40
736;DHT22;352;48.626;9.238;2023-07-13T09:50:33;33.80;42.90
736;DHT22;352;48.626;9.238;2023-07-13T09:53:01;33.50;44.90
736;DHT22;352;48.626;9.238;2023-07-13T09:55:32;33.20;46.00
736;DHT22;352;48.626;9.238;2023-07-13T09:58:04;32.80;45.20
736;DHT22;352;48.626;9.238;2023-07-13T10:00:32;32.50;46.70
736;DHT22;352;48.626;9.238;2023-07-13T10:03:03;32.40;46.10
736;DHT22;352;48.626;9.238;2023-07-13T10:05:38;32.40;45.30
736;DHT22;352;48.626;9.238;2023-07-13T10:08:05;32.60;41.80
736;DHT22;352;48.626;9.238;2023-07-13T10:10:32;32.90;44.80
736;DHT22;352;48.626;9.238;2023-07-13T10:13:02;33.00;44.60
736;DHT22;352;48.626;9.238;2023-07-13T10:15:30;33.40;43.50
736;DHT22;352;48.626;9.238;2023-07-13T10:17:58;33.50;41.70
736;DHT22;352;48.626;9.238;2023-07-13T10:20:27;33.20;43.30
736;DHT22;352;48.626;9.238;2023-07-13T10:22:58;33.10;43.90
736;DHT22;352;48.626;9.238;2023-07-13T10:25:33;33.10;43.00
736;DHT22;352;48.626;9.238;2023-07-13T10:28:04;33.20;43.70
736;DHT22;352;48.626;9.238;2023-07-13T10:30:34;33.50;43.20
736;DHT22;352;48.626;9.238;2023-07-13T10:33:03;33.40;42.50
736;DHT22;352;48.626;9.238;2023-07-13T10:35:40;32.80;42.00
736;DHT22;352;48.626;9.238;2023-07-13T10:38:11;32.50;43.20
736;DHT22;352;48.626;9.238;2023-07-13T10:40:41;32.30;44.20
736;DHT22;352;48.626;9.238;2023-07-13T10:43:15;32.10;44.10
736;DHT22;352;48.626;9.238;2023-07-13T10:45:46;31.90;44.30
736;DHT22;352;48.626;9.238;2023-07-13T10:48:16;31.80;46.00
736;DHT22;352;48.626;9.238;2023-07-13T10:50:46;31.60;45.90
736;DHT22;352;48.626;9.238;2023-07-13T10:53:19;31.50;47.00
736;DHT22;352;48.626;9.238;2023-07-13T10:55:59;31.40;48.10
736;DHT22;352;48.626;9.238;2023-07-13T10:58:31;31.30;46.60
736;DHT22;352;48.626;9.238;2023-07-13T11:01:04;31.20;46.60
736;DHT22;352;48.626;9.238;2023-07-13T11:03:36;31.10;45.20
736;DHT22;352;48.626;9.238;2023-07-13T11:06:13;31.20;46.90
736;DHT22;352;48.626;9.238;2023-07-13T11:08:52;31.30;47.40
736;DHT22;352;48.626;9.238;2023-07-13T11:11:34;31.70;46.20
736;DHT22;352;48.626;9.238;2023-07-13T11:14:03;32.00;48.00
736;DHT22;352;48.626;9.238;2023-07-13T11:16:42;32.20;43.40
736;DHT22;352;48.626;9.238;2023-07-13T11:19:43;32.50;46.10
736;DHT22;352;48.626;9.238;2023-07-13T11:22:14;32.70;46.10
736;DHT22;352;48.626;9.238;2023-07-13T11:24:53;32.90;46.60
736;DHT22;352;48.626;9.238;2023-07-13T11:27:36;33.20;44.90
736;DHT22;352;48.626;9.238;2023-07-13T11:30:25;33.20;43.20
736;DHT22;352;48.626;9.238;2023-07-13T11:33:16;33.20;43.70
736;DHT22;352;48.626;9.238;2023-07-13T11:35:52;32.70;42.10
736;DHT22;352;48.626;9.238;2023-07-13T11:38:27;32.50;43.50
736;DHT22;352;48.626;9.238;2023-07-13T11:40:55;32.40;43.90
736;DHT22;352;48.626;9.238;2023-07-13T11:43:23;32.50;44.40
736;DHT22;352;48.626;9.238;2023-07-13T11:45:51;32.50;44.30
736;DHT22;352;48.626;9.238;2023-07-13T11:48:19;32.40;45.10
736;DHT22;352;48.626;9.238;2023-07-13T12:08:57;31.50;43.80
736;DHT22;352;48.626;9.238;2023-07-13T12:15:39;31.30;48.10
736;DHT22;352;48.626;9.238;2023-07-13T12:18:53;31.50;45.40
736;DHT22;352;48.626;9.238;2023-07-13T12:22:01;31.70;44.90
736;DHT22;352;48.626;9.238;2023-07-13T12:24:43;31.40;44.50
736;DHT22;352;48.626;9.238;2023-07-13T12:27:28;31.00;45.70
736;DHT22;352;48.626;9.238;2023-07-13T12:30:23;30.70;46.00
736;DHT22;352;48.626;9.238;2023-07-13T12:33:26;30.50;47.90
736;DHT22;352;48.626;9.238;2023-07-13T12:36:12;30.50;48.70
736;DHT22;352;48.626;9.238;2023-07-13T12:38:58;30.30;46.60
736;DHT22;352;48.626;9.238;2023-07-13T12:42:17;30.30;46.90
736;DHT22;352;48.626;9.238;2023-07-13T12:45:27;29.90;46.00
736;DHT22;352;48.626;9.238;2023-07-13T12:48:42;29.90;45.40
736;DHT22;352;48.626;9.238;2023-07-13T12:51:20;29.80;47.00
736;DHT22;352;48.626;9.238;2023-07-13T12:54:16;29.90;49.00
736;DHT22;352;48.626;9.238;2023-07-13T12:57:18;29.90;47.40
736;DHT22;352;48.626;9.238;2023-07-13T13:04:02;29.80;47.80
736;DHT22;352;48.626;9.238;2023-07-13T13:07:05;29.80;47.90
736;DHT22;352;48.626;9.238;2023-07-13T13:10:31;29.70;47.90
736;DHT22;352;48.626;9.238;2023-07-13T13:13:38;29.30;48.50
736;DHT22;352;48.626;9.238;2023-07-13T13:19:44;29.00;48.40
736;DHT22;352;48.626;9.238;2023-07-13T13:22:35;28.80;48.20
736;DHT22;352;48.626;9.238;2023-07-13T13:25:22;28.90;48.90
736;DHT22;352;48.626;9.238;2023-07-13T13:28:00;28.80;48.80
736;DHT22;352;48.626;9.238;2023-07-13T13:31:28;28.80;49.50
736;DHT22;352;48.626;9.238;2023-07-13T13:34:18;28.80;49.10
736;DHT22;352;48.626;9.238;2023-07-13T13:37:20;28.50;49.00
736;DHT22;352;48.626;9.238;2023-07-13T13:40:22;28.50;49.70
736;DHT22;352;48.626;9.238;2023-07-13T13:43:47;28.60;50.90
736;DHT22;352;48.626;9.238;2023-07-13T13:50:19;28.90;48.50
736;DHT22;352;48.626;9.238;2023-07-13T13:53:43;29.10;47.20
736;DHT22;352;48.626;9.238;2023-07-13T14:00:16;29.00;46.10
736;DHT22;352;48.626;9.238;2023-07-13T14:03:19;28.90;47.60
736;DHT22;352;48.626;9.238;2023-07-13T14:13:20;29.10;49.00
736;DHT22;352;48.626;9.238;2023-07-13T14:16:21;28.80;46.70
736;DHT22;352;48.626;9.238;2023-07-13T14:19:20;28.60;46.50
736;DHT22;352;48.626;9.238;2023-07-13T14:22:32;28.50;45.50
736;DHT22;352;48.626;9.238;2023-07-13T14:25:17;28.40;45.40
736;DHT22;352;48.626;9.238;2023-07-13T14:27:45;28.30;45.60
736;DHT22;352;48.626;9.238;2023-07-13T14:30:16;28.30;47.90
736;DHT22;352;48.626;9.238;2023-07-13T14:32:44;28.40;47.90
736;DHT22;352;48.626;9.238;2023-07-13T14:35:11;28.30;47.60
736;DHT22;352;48.626;9.238;2023-07-13T14:37:38;28.30;47.90
736;DHT22;352;48.626;9.238;2023-07-13T14:40:13;28.20;48.30
736;DHT22;352;48.626;9.238;2023-07-13T14:42:40;28.20;48.80
736;DHT22;352;48.626;9.238;2023-07-13T14:45:14;28.10;47.70
736;DHT22;352;48.626;9.238;2023-07-13T14:47:41;28.00;48.80
736;DHT22;352;48.626;9.238;2023-07-13T14:50:13;28.10;49.30
736;DHT22;352;48.626;9.238;2023-07-13T14:52:41;28.10;51.30
736;DHT22;352;48.626;9.238;2023-07-13T14:55:10;28.20;48.90
736;DHT22;352;48.626;9.238;2023-07-13T14:57:37;28.30;49.80
736;DHT22;352;48.626;9.238;2023-07-13T15:00:05;28.40;49.20
736;DHT22;352;48.626;9.238;2023-07-13T15:02:35;28.50;51.00
736;DHT22;352;48.626;9.238;2023-07-13T15:05:11;28.60;49.40
736;DHT22;352;48.626;9.238;2023-07-13T15:07:39;28.60;49.70
736;DHT22;352;48.626;9.238;2023-07-13T15:10:13;28.50;49.30
736;DHT22;352;48.626;9.238;2023-07-13T15:12:40;28.40;49.30
736;DHT22;352;48.626;9.238;2023-07-13T15:15:07;28.40;49.60
736;DHT22;352;48.626;9.238;2023-07-13T15:17:37;28.10;49.50
736;DHT22;352;48.626;9.238;2023-07-13T15:20:11;28.10;49.70
736;DHT22;352;48.626;9.238;2023-07-13T15:22:39;27.90;49.50
736;DHT22;352;48.626;9.238;2023-07-13T15:25:13;27.90;49.60
736;DHT22;352;48.626;9.238;2023-07-13T15:27:41;27.80;49.50
736;DHT22;352;48.626;9.238;2023-07-13T15:30:09;28.00;51.20
736;DHT22;352;48.626;9.238;2023-07-13T15:32:37;28.10;52.60
736;DHT22;352;48.626;9.238;2023-07-13T15:35:05;28.20;50.50
736;DHT22;352;48.626;9.238;2023-07-13T15:37:32;28.30;51.40
736;DHT22;352;48.626;9.238;2023-07-13T15:40:00;28.20;50.40
736;DHT22;352;48.626;9.238;2023-07-13T15:42:27;28.20;50.80
736;DHT22;352;48.626;9.238;2023-07-13T15:44:54;28.10;50.80
736;DHT22;352;48.626;9.238;2023-07-13T15:47:20;28.10;50.80
736;DHT22;352;48.626;9.238;2023-07-13T15:49:49;28.10;51.30
736;DHT22;352;48.626;9.238;2023-07-13T15:52:20;28.10;51.50
736;DHT22;352;48.626;9.238;2023-07-13T15:54:48;28.10;51.30
736;DHT22;352;48.626;9.238;2023-07-13T15:57:15;28.00;50.90
736;DHT22;352;48.626;9.238;2023-07-13T15:59:43;27.90;51.30
736;DHT22;352;48.626;9.238;2023-07-13T16:02:16;27.70;51.20
736;DHT22;352;48.626;9.238;2023-07-13T16:04:44;27.60;51.20
736;DHT22;352;48.626;9.238;2023-07-13T16:07:16;27.50;51.60
736;DHT22;352;48.626;9.238;2023-07-13T16:09:44;27.50;52.80
736;DHT22;352;48.626;9.238;2023-07-13T16:12:12;27.40;51.00
736;DHT22;352;48.626;9.238;2023-07-13T16:14:40;27.40;51.90
736;DHT22;352;48.626;9.238;2023-07-13T16:17:09;27.50;52.20
736;DHT22;352;48.626;9.238;2023-07-13T16:19:36;27.50;52.40
736;DHT22;352;48.626;9.238;2023-07-13T16:22:04;27.40;50.90
736;DHT22;352;48.626;9.238;2023-07-13T16:24:33;27.30;51.60
736;DHT22;352;48.626;9.238;2023-07-13T16:27:00;27.30;51.20
736;DHT22;352;48.626;9.238;2023-07-13T16:29:30;27.30;52.60
736;DHT22;352;48.626;9.238;2023-07-13T16:31:58;27.30;51.10
736;DHT22;352;48.626;9.238;2023-07-13T16:34:27;27.20;51.80
736;DHT22;352;48.626;9.238;2023-07-13T16:36:54;27.20;51.40
736;DHT22;352;48.626;9.238;2023-07-13T16:39:21;27.20;53.00
736;DHT22;352;48.626;9.238;2023-07-13T16:42:01;27.20;52.70
736;DHT22;352;48.626;9.238;2023-07-13T16:48:17;27.20;52.80
736;DHT22;352;48.626;9.238;2023-07-13T16:50:45;27.30;53.20
736;DHT22;352;48.626;9.238;2023-07-13T16:53:57;27.20;52.40
736;DHT22;352;48.626;9.238;2023-07-13T16:56:26;27.30;52.20
736;DHT22;352;48.626;9.238;2023-07-13T16:59:11;27.20;52.10
736;DHT22;352;48.626;9.238;2023-07-13T17:05:16;27.10;53.10
736;DHT22;352;48.626;9.238;2023-07-13T17:07:58;27.10;51.30
736;DHT22;352;48.626;9.238;2023-07-13T17:10:27;27.10;53.40
736;DHT22;352;48.626;9.238;2023-07-13T17:12:59;27.10;52.50
736;DHT22;352;48.626;9.238;2023-07-13T17:15:32;27.00;52.80
736;DHT22;352;48.626;9.238;2023-07-13T17:18:03;26.90;57.80
736;DHT22;352;48.626;9.238;2023-07-13T17:20:34;26.90;54.60
736;DHT22;352;48.626;9.238;2023-07-13T17:23:04;26.90;54.50
736;DHT22;352;48.626;9.238;2023-07-13T17:25:31;26.90;54.90
736;DHT22;352;48.626;9.238;2023-07-13T17:27:58;26.80;55.50
736;DHT22;352;48.626;9.238;2023-07-13T17:30:25;26.80;54.40
736;DHT22;352;48.626;9.238;2023-07-13T17:32:53;26.70;52.80
736;DHT22;352;48.626;9.238;2023-07-13T17:35:24;26.60;54.80
736;DHT22;352;48.626;9.238;2023-07-13T17:37:54;26.50;54.90
736;DHT22;352;48.626;9.238;2023-07-13T17:40:21;26.40;52.90
736;DHT22;352;48.626;9.238;2023-07-13T17:42:50;26.30;53.70
736;DHT22;352;48.626;9.238;2023-07-13T17:45:21;26.30;54.50
736;DHT22;352;48.626;9.238;2023-07-13T17:47:49;26.30;54.00
736;DHT22;352;48.626;9.238;2023-07-13T17:50:26;26.30;54.00
736;DHT22;352;48.626;9.238;2023-07-13T17:53:01;26.20;54.40
736;DHT22;352;48.626;9.238;2023-07-13T17:55:36;26.10;55.30
736;DHT22;352;48.626;9.238;2023-07-13T17:58:03;26.10;54.50
736;DHT22;352;48.626;9.238;2023-07-13T18:00:31;26.00;54.30
736;DHT22;352;48.626;9.238;2023-07-13T18:03:03;26.00;54.80
736;DHT22;352;48.626;9.238;2023-07-13T18:05:33;26.10;55.20
736;DHT22;352;48.626;9.238;2023-07-13T18:08:01;26.00;54.50
736;DHT22;352;48.626;9.238;2023-07-13T18:10:31;25.90;54.00
736;DHT22;352;48.626;9.238;2023-07-13T18:12:58;25.90;55.50
736;DHT22;352;48.626;9.238;2023-07-13T18:15:28;25.90;54.60
736;DHT22;352;48.626;9.238;2023-07-13T18:18:01;25.90;55.00
736;DHT22;352;48.626;9.238;2023-07-13T18:20:41;25.80;55.00
736;DHT22;352;48.626;9.238;2023-07-13T18:23:16;25.80;55.50
736;DHT22;352;48.626;9.238;2023-07-13T18:25:45;25.80;56.30
736;DHT22;352;48.626;9.238;2023-07-13T18:28:13;25.70;55.00
736;DHT22;352;48.626;9.238;2023-07-13T18:30:40;25.70;56.10
736;DHT22;352;48.626;9.238;2023-07-13T18:33:16;25.70;56.00
736;DHT22;352;48.626;9.238;2023-07-13T18:35:46;25.60;57.00
736;DHT22;352;48.626;9.238;2023-07-13T18:38:17;25.60;56.30
736;DHT22;352;48.626;9.238;2023-07-13T18:40:44;25.50;56.40
736;DHT22;352;48.626;9.238;2023-07-13T18:43:11;25.50;55.90
736;DHT22;352;48.626;9.238;2023-07-13T18:45:39;25.40;56.40
736;DHT22;352;48.626;9.238;2023-07-13T18:48:10;25.40;56.60
736;DHT22;352;48.626;9.238;2023-07-13T18:50:38;25.30;56.80
736;DHT22;352;48.626;9.238;2023-07-13T18:53:11;25.20;57.20
736;DHT22;352;48.626;9.238;2023-07-13T18:55:39;25.20;57.10
736;DHT22;352;48.626;9.238;2023-07-13T18:58:05;25.20;56.90
736;DHT22;352;48.626;9.238;2023-07-13T19:00:32;25.10;56.70
736;DHT22;352;48.626;9.238;2023-07-13T19:02:59;25.00;56.90
736;DHT22;352;48.626;9.238;2023-07-13T19:05:29;25.00;57.10
736;DHT22;352;48.626;9.238;2023-07-13T19:07:56;25.00;57.10
736;DHT22;352;48.626;9.238;2023-07-13T19:10:31;24.90;57.50
736;DHT22;352;48.626;9.238;2023-07-13T19:13:04;24.80;57.20
736;DHT22;352;48.626;9.238;2023-07-13T19:15:56;24.80;58.20
736;DHT22;352;48.626;9.238;2023-07-13T19:18:53;24.70;57.40
736;DHT22;352;48.626;9.238;2023-07-13T19:21:56;24.50;57.40
736;DHT22;352;48.626;9.238;2023-07-13T19:25:14;24.50;58.60
736;DHT22;352;48.626;9.238;2023-07-13T19:28:26;24.50;58.20
736;DHT22;352;48.626;9.238;2023-07-13T19:34:24;24.40;58.20
736;DHT22;352;48.626;9.238;2023-07-13T19:37:30;24.30;58.40
736;DHT22;352;48.626;9.238;2023-07-13T19:40:21;24.20;58.50
736;DHT22;352;48.626;9.238;2023-07-13T19:43:25;24.20;58.50
736;DHT22;352;48.626;9.238;2023-07-13T19:46:07;24.10;59.00
736;DHT22;352;48.626;9.238;2023-07-13T19:48:38;24.10;59.70
736;DHT22;352;48.626;9.238;2023-07-13T19:51:09;24.10;59.20
736;DHT22;352;48.626;9.238;2023-07-13T19:53:41;24.10;59.40
736;DHT22;352;48.626;9.238;2023-07-13T19:56:08;24.00;59.30
736;DHT22;352;48.626;9.238;2023-07-13T19:58:35;23.90;59.20
736;DHT22;352;48.626;9.238;2023-07-13T20:01:06;23.90;59.60
736;DHT22;352;48.626;9.238;2023-07-13T20:03:34;23.80;60.10
736;DHT22;352;48.626;9.238;2023-07-13T20:06:01;23.70;59.90
736;DHT22;352;48.626;9.238;2023-07-13T20:08:27;23.70;60.00
736;DHT22;352;48.626;9.238;2023-07-13T20:10:55;23.70;60.40
736;DHT22;352;48.626;9.238;2023-07-13T20:13:24;23.60;60.40
736;DHT22;352;48.626;9.238;2023-07-13T20:16:00;23.60;62.80
736;DHT22;352;48.626;9.238;2023-07-13T20:18:31;23.60;64.30
736;DHT22;352;48.626;9.238;2023-07-13T20:20:57;23.60;64.40
736;DHT22;352;48.626;9.238;2023-07-13T20:23:24;23.60;66.00
736;DHT22;352;48.626;9.238;2023-07-13T20:25:53;23.50;65.40